Open Full Screen Window  High Contrast Mode
October 24, 2014 6:13 AM EDT
Weather Information
Wind Direction
  ---
Wind Speed
  00 kt (0 mph)
Wind Gust
  00 kt (0 mph)
Altimeter
30.05 in
Visibility
7 SM
Temperature
03° C
37° F
Dewpoint
03° C
37° F
Humidity
100%
1hr Rain Fall
00.00 in.
24hr Rain Fall
00.00 in.
Sky Condition
Clear
VFR

METAR KIKW 241013Z AUTO 00000KT 7SM CLR 03/03 A3005 RMK AO2 T00310027

*Background is not an actual portrayal of the airport.